sensor_id;sensor_type;location;lat;lon;timestamp;temperature;humidity
52565;DHT22;38460;53.106;7.004;2024-02-28T00:01:21;1.60;99.90
52565;DHT22;38460;53.106;7.004;2024-02-28T00:03:47;1.60;99.90
52565;DHT22;38460;53.106;7.004;2024-02-28T00:06:15;1.60;99.90
52565;DHT22;38460;53.106;7.004;2024-02-28T00:08:41;1.60;99.90
52565;DHT22;38460;53.106;7.004;2024-02-28T00:11:07;1.60;99.90
52565;DHT22;38460;53.106;7.004;2024-02-28T00:13:33;1.60;99.90
52565;DHT22;38460;53.106;7.004;2024-02-28T00:15:58;1.60;99.90
52565;DHT22;38460;53.106;7.004;2024-02-28T00:18:24;1.60;99.90
52565;DHT22;38460;53.106;7.004;2024-02-28T00:20:50;1.60;99.90
52565;DHT22;38460;53.106;7.004;2024-02-28T00:23:16;1.60;99.90
52565;DHT22;38460;53.106;7.004;2024-02-28T00:25:41;1.60;99.90
52565;DHT22;38460;53.106;7.004;2024-02-28T00:28:07;1.60;99.90
52565;DHT22;38460;53.106;7.004;2024-02-28T00:30:33;1.70;99.90
52565;DHT22;38460;53.106;7.004;2024-02-28T00:33:00;1.70;99.90
52565;DHT22;38460;53.106;7.004;2024-02-28T00:35:25;1.60;99.90
52565;DHT22;38460;53.106;7.004;2024-02-28T00:37:51;1.60;99.90
52565;DHT22;38460;53.106;7.004;2024-02-28T00:40:17;1.60;99.90
52565;DHT22;38460;53.106;7.004;2024-02-28T00:42:42;1.70;99.90
52565;DHT22;38460;53.106;7.004;2024-02-28T00:45:09;1.70;99.90
52565;DHT22;38460;53.106;7.004;2024-02-28T00:47:35;1.70;99.90
52565;DHT22;38460;53.106;7.004;2024-02-28T00:50:01;1.70;99.90
52565;DHT22;38460;53.106;7.004;2024-02-28T00:52:29;1.70;99.90
52565;DHT22;38460;53.106;7.004;2024-02-28T00:54:56;1.70;99.90
52565;DHT22;38460;53.106;7.004;2024-02-28T00:57:21;1.70;99.90
52565;DHT22;38460;53.106;7.004;2024-02-28T00:59:47;1.70;99.90
52565;DHT22;38460;53.106;7.004;2024-02-28T01:02:13;1.70;99.90
52565;DHT22;38460;53.106;7.004;2024-02-28T01:04:41;1.70;99.90
52565;DHT22;38460;53.106;7.004;2024-02-28T01:07:07;1.70;99.90
52565;DHT22;38460;53.106;7.004;2024-02-28T01:09:33;1.70;99.90
52565;DHT22;38460;53.106;7.004;2024-02-28T01:11:58;1.80;99.90
52565;DHT22;38460;53.106;7.004;2024-02-28T01:14:24;1.80;99.90
52565;DHT22;38460;53.106;7.004;2024-02-28T01:16:50;1.80;99.90
52565;DHT22;38460;53.106;7.004;2024-02-28T01:19:16;1.80;99.90
52565;DHT22;38460;53.106;7.004;2024-02-28T01:21:42;1.80;99.90
52565;DHT22;38460;53.106;7.004;2024-02-28T01:24:07;1.80;99.90
52565;DHT22;38460;53.106;7.004;2024-02-28T01:26:33;1.80;99.90
52565;DHT22;38460;53.106;7.004;2024-02-28T01:28:59;1.80;99.90
52565;DHT22;38460;53.106;7.004;2024-02-28T01:31:25;1.80;99.90
52565;DHT22;38460;53.106;7.004;2024-02-28T01:33:50;1.90;99.90
52565;DHT22;38460;53.106;7.004;2024-02-28T01:36:16;1.90;99.90
52565;DHT22;38460;53.106;7.004;2024-02-28T01:38:42;1.90;99.90
52565;DHT22;38460;53.106;7.004;2024-02-28T01:41:07;1.90;99.90
52565;DHT22;38460;53.106;7.004;2024-02-28T01:43:33;1.90;99.90
52565;DHT22;38460;53.106;7.004;2024-02-28T01:46:06;1.90;99.90
52565;DHT22;38460;53.106;7.004;2024-02-28T01:48:35;1.90;99.90
52565;DHT22;38460;53.106;7.004;2024-02-28T01:51:01;1.90;99.90
52565;DHT22;38460;53.106;7.004;2024-02-28T01:53:28;2.00;99.90
52565;DHT22;38460;53.106;7.004;2024-02-28T01:55:53;2.00;99.90
52565;DHT22;38460;53.106;7.004;2024-02-28T01:58:20;2.00;99.90
52565;DHT22;38460;53.106;7.004;2024-02-28T02:00:46;2.00;99.90
52565;DHT22;38460;53.106;7.004;2024-02-28T02:03:13;2.00;99.90
52565;DHT22;38460;53.106;7.004;2024-02-28T02:05:39;2.00;99.90
52565;DHT22;38460;53.106;7.004;2024-02-28T02:08:06;2.00;99.90
52565;DHT22;38460;53.106;7.004;2024-02-28T02:10:32;2.00;99.90
52565;DHT22;38460;53.106;7.004;2024-02-28T02:13:05;2.00;99.90
52565;DHT22;38460;53.106;7.004;2024-02-28T02:15:31;2.00;99.90
52565;DHT22;38460;53.106;7.004;2024-02-28T02:17:57;2.00;99.90
52565;DHT22;38460;53.106;7.004;2024-02-28T02:20:22;2.00;99.90
52565;DHT22;38460;53.106;7.004;2024-02-28T02:22:49;2.10;99.90
52565;DHT22;38460;53.106;7.004;2024-02-28T02:25:15;2.10;99.90
52565;DHT22;38460;53.106;7.004;2024-02-28T02:27:41;2.10;99.90
52565;DHT22;38460;53.106;7.004;2024-02-28T02:30:07;2.10;99.90
52565;DHT22;38460;53.106;7.004;2024-02-28T02:32:32;2.10;99.90
52565;DHT22;38460;53.106;7.004;2024-02-28T02:34:58;2.10;99.90
52565;DHT22;38460;53.106;7.004;2024-02-28T02:37:24;2.10;99.90
52565;DHT22;38460;53.106;7.004;2024-02-28T02:39:51;2.10;99.90
52565;DHT22;38460;53.106;7.004;2024-02-28T02:42:17;2.20;99.90
52565;DHT22;38460;53.106;7.004;2024-02-28T02:44:43;2.20;99.90
52565;DHT22;38460;53.106;7.004;2024-02-28T02:47:09;2.20;99.90
52565;DHT22;38460;53.106;7.004;2024-02-28T02:49:35;2.20;99.90
52565;DHT22;38460;53.106;7.004;2024-02-28T02:52:00;2.20;99.90
52565;DHT22;38460;53.106;7.004;2024-02-28T02:54:26;2.20;99.90
52565;DHT22;38460;53.106;7.004;2024-02-28T02:56:52;2.20;99.90
52565;DHT22;38460;53.106;7.004;2024-02-28T02:59:18;2.20;99.90
52565;DHT22;38460;53.106;7.004;2024-02-28T03:01:47;2.20;99.90
52565;DHT22;38460;53.106;7.004;2024-02-28T03:04:13;2.20;99.90
52565;DHT22;38460;53.106;7.004;2024-02-28T03:06:39;2.20;99.90
52565;DHT22;38460;53.106;7.004;2024-02-28T03:09:04;2.20;99.90
52565;DHT22;38460;53.106;7.004;2024-02-28T03:11:32;2.20;99.90
52565;DHT22;38460;53.106;7.004;2024-02-28T03:13:58;2.50;99.90
52565;DHT22;38460;53.106;7.004;2024-02-28T03:16:23;2.20;99.90
52565;DHT22;38460;53.106;7.004;2024-02-28T03:18:49;2.20;99.90
52565;DHT22;38460;53.106;7.004;2024-02-28T03:21:15;2.20;99.90
52565;DHT22;38460;53.106;7.004;2024-02-28T03:23:42;2.20;99.90
52565;DHT22;38460;53.106;7.004;2024-02-28T03:26:08;2.20;99.90
52565;DHT22;38460;53.106;7.004;2024-02-28T03:28:34;2.50;99.90
52565;DHT22;38460;53.106;7.004;2024-02-28T03:31:00;2.20;99.90
52565;DHT22;38460;53.106;7.004;2024-02-28T03:33:25;2.20;99.90
52565;DHT22;38460;53.106;7.004;2024-02-28T03:35:51;2.30;99.90
52565;DHT22;38460;53.106;7.004;2024-02-28T03:38:17;2.30;99.90
52565;DHT22;38460;53.106;7.004;2024-02-28T03:40:43;2.20;99.90
52565;DHT22;38460;53.106;7.004;2024-02-28T03:43:08;2.30;99.90
52565;DHT22;38460;53.106;7.004;2024-02-28T03:45:37;2.30;99.90
52565;DHT22;38460;53.106;7.004;2024-02-28T03:48:04;2.30;99.90
52565;DHT22;38460;53.106;7.004;2024-02-28T03:50:30;2.20;99.90
52565;DHT22;38460;53.106;7.004;2024-02-28T03:52:55;2.30;99.90
52565;DHT22;38460;53.106;7.004;2024-02-28T03:55:21;2.30;99.90
52565;DHT22;38460;53.106;7.004;2024-02-28T03:57:48;2.30;99.90
52565;DHT22;38460;53.106;7.004;2024-02-28T04:00:14;2.30;99.90
52565;DHT22;38460;53.106;7.004;2024-02-28T04:02:39;2.30;99.90
52565;DHT22;38460;53.106;7.004;2024-02-28T04:05:06;2.30;99.90
52565;DHT22;38460;53.106;7.004;2024-02-28T04:07:32;2.30;99.90
52565;DHT22;38460;53.106;7.004;2024-02-28T04:09:57;2.30;99.90
52565;DHT22;38460;53.106;7.004;2024-02-28T04:12:23;2.30;99.90
52565;DHT22;38460;53.106;7.004;2024-02-28T04:14:49;2.30;99.90
52565;DHT22;38460;53.106;7.004;2024-02-28T04:17:14;2.40;99.90
52565;DHT22;38460;53.106;7.004;2024-02-28T04:19:40;2.30;99.90
52565;DHT22;38460;53.106;7.004;2024-02-28T04:22:06;2.30;99.90
52565;DHT22;38460;53.106;7.004;2024-02-28T04:24:31;2.20;99.90
52565;DHT22;38460;53.106;7.004;2024-02-28T04:26:58;2.20;99.90
52565;DHT22;38460;53.106;7.004;2024-02-28T04:29:25;2.30;99.90
52565;DHT22;38460;53.106;7.004;2024-02-28T04:31:51;2.30;99.90
52565;DHT22;38460;53.106;7.004;2024-02-28T04:34:16;2.30;99.90
52565;DHT22;38460;53.106;7.004;2024-02-28T04:36:42;2.20;99.90
52565;DHT22;38460;53.106;7.004;2024-02-28T04:39:08;2.30;99.90
52565;DHT22;38460;53.106;7.004;2024-02-28T04:41:34;2.20;99.90
52565;DHT22;38460;53.106;7.004;2024-02-28T04:44:00;2.20;99.90
52565;DHT22;38460;53.106;7.004;2024-02-28T04:46:25;2.20;99.90
52565;DHT22;38460;53.106;7.004;2024-02-28T04:48:51;2.20;99.90
52565;DHT22;38460;53.106;7.004;2024-02-28T04:51:17;2.40;99.90
52565;DHT22;38460;53.106;7.004;2024-02-28T04:53:43;2.20;99.90
52565;DHT22;38460;53.106;7.004;2024-02-28T04:56:09;2.20;99.90
52565;DHT22;38460;53.106;7.004;2024-02-28T04:58:36;2.30;99.90
52565;DHT22;38460;53.106;7.004;2024-02-28T05:01:01;2.50;99.90
52565;DHT22;38460;53.106;7.004;2024-02-28T05:03:28;2.30;99.90
52565;DHT22;38460;53.106;7.004;2024-02-28T05:05:54;2.40;99.90
52565;DHT22;38460;53.106;7.004;2024-02-28T05:08:20;2.30;99.90
52565;DHT22;38460;53.106;7.004;2024-02-28T05:10:46;2.30;99.90
52565;DHT22;38460;53.106;7.004;2024-02-28T05:13:13;2.30;99.90
52565;DHT22;38460;53.106;7.004;2024-02-28T05:15:38;2.30;99.90
52565;DHT22;38460;53.106;7.004;2024-02-28T05:18:04;2.30;99.90
52565;DHT22;38460;53.106;7.004;2024-02-28T05:20:30;2.30;99.90
52565;DHT22;38460;53.106;7.004;2024-02-28T05:22:56;2.30;99.90
52565;DHT22;38460;53.106;7.004;2024-02-28T05:25:22;2.30;99.90
52565;DHT22;38460;53.106;7.004;2024-02-28T05:27:48;2.30;99.90
52565;DHT22;38460;53.106;7.004;2024-02-28T05:30:14;2.30;99.90
52565;DHT22;38460;53.106;7.004;2024-02-28T05:32:40;2.30;99.90
52565;DHT22;38460;53.106;7.004;2024-02-28T05:35:06;2.30;99.90
52565;DHT22;38460;53.106;7.004;2024-02-28T05:37:31;2.30;99.90
52565;DHT22;38460;53.106;7.004;2024-02-28T05:39:57;2.30;99.90
52565;DHT22;38460;53.106;7.004;2024-02-28T05:42:23;2.30;99.90
52565;DHT22;38460;53.106;7.004;2024-02-28T05:44:50;2.30;99.90
52565;DHT22;38460;53.106;7.004;2024-02-28T05:47:16;2.30;99.90
52565;DHT22;38460;53.106;7.004;2024-02-28T05:49:42;2.40;99.90
52565;DHT22;38460;53.106;7.004;2024-02-28T05:52:09;2.40;99.90
52565;DHT22;38460;53.106;7.004;2024-02-28T05:54:34;2.40;99.90
52565;DHT22;38460;53.106;7.004;2024-02-28T05:57:00;2.40;99.90
52565;DHT22;38460;53.106;7.004;2024-02-28T05:59:26;2.40;99.90
52565;DHT22;38460;53.106;7.004;2024-02-28T06:01:52;2.40;99.90
52565;DHT22;38460;53.106;7.004;2024-02-28T06:04:17;2.40;99.90
52565;DHT22;38460;53.106;7.004;2024-02-28T06:06:43;2.50;99.90
52565;DHT22;38460;53.106;7.004;2024-02-28T06:09:10;2.40;99.90
52565;DHT22;38460;53.106;7.004;2024-02-28T06:11:36;2.40;99.90
52565;DHT22;38460;53.106;7.004;2024-02-28T06:14:02;2.60;99.90
52565;DHT22;38460;53.106;7.004;2024-02-28T06:16:30;2.40;99.90
52565;DHT22;38460;53.106;7.004;2024-02-28T06:18:55;2.40;99.90
52565;DHT22;38460;53.106;7.004;2024-02-28T06:21:24;2.40;99.90
52565;DHT22;38460;53.106;7.004;2024-02-28T06:23:51;2.40;99.90
52565;DHT22;38460;53.106;7.004;2024-02-28T06:26:16;2.40;99.90
52565;DHT22;38460;53.106;7.004;2024-02-28T06:28:45;2.40;99.90
52565;DHT22;38460;53.106;7.004;2024-02-28T06:31:15;2.40;99.90
52565;DHT22;38460;53.106;7.004;2024-02-28T06:33:42;2.40;99.90
52565;DHT22;38460;53.106;7.004;2024-02-28T06:36:08;2.40;99.90
52565;DHT22;38460;53.106;7.004;2024-02-28T06:38:33;2.50;99.90
52565;DHT22;38460;53.106;7.004;2024-02-28T06:41:02;2.40;99.90
52565;DHT22;38460;53.106;7.004;2024-02-28T06:43:28;2.50;99.90
52565;DHT22;38460;53.106;7.004;2024-02-28T06:45:54;2.50;99.90
52565;DHT22;38460;53.106;7.004;2024-02-28T06:48:19;2.50;99.90
52565;DHT22;38460;53.106;7.004;2024-02-28T06:50:45;2.50;99.90
52565;DHT22;38460;53.106;7.004;2024-02-28T06:53:11;2.80;99.90
52565;DHT22;38460;53.106;7.004;2024-02-28T06:55:37;2.60;99.90
52565;DHT22;38460;53.106;7.004;2024-02-28T06:58:02;2.50;99.90
52565;DHT22;38460;53.106;7.004;2024-02-28T07:00:28;2.50;99.90
52565;DHT22;38460;53.106;7.004;2024-02-28T07:02:54;2.60;99.90
52565;DHT22;38460;53.106;7.004;2024-02-28T07:05:20;2.70;99.90
52565;DHT22;38460;53.106;7.004;2024-02-28T07:07:45;2.60;99.90
52565;DHT22;38460;53.106;7.004;2024-02-28T07:10:11;2.60;99.90
52565;DHT22;38460;53.106;7.004;2024-02-28T07:12:37;2.60;99.90
52565;DHT22;38460;53.106;7.004;2024-02-28T07:15:03;2.70;99.90
52565;DHT22;38460;53.106;7.004;2024-02-28T07:17:29;2.70;99.90
52565;DHT22;38460;53.106;7.004;2024-02-28T07:19:55;2.70;99.90
52565;DHT22;38460;53.106;7.004;2024-02-28T07:22:20;2.70;99.90
52565;DHT22;38460;53.106;7.004;2024-02-28T07:24:46;2.70;99.90
52565;DHT22;38460;53.106;7.004;2024-02-28T07:27:12;2.80;99.90
52565;DHT22;38460;53.106;7.004;2024-02-28T07:29:38;2.80;99.90
52565;DHT22;38460;53.106;7.004;2024-02-28T07:32:04;2.80;99.90
52565;DHT22;38460;53.106;7.004;2024-02-28T07:34:30;2.80;99.90
52565;DHT22;38460;53.106;7.004;2024-02-28T07:36:55;2.90;99.90
52565;DHT22;38460;53.106;7.004;2024-02-28T07:39:22;2.90;99.90
52565;DHT22;38460;53.106;7.004;2024-02-28T07:41:49;2.90;99.90
52565;DHT22;38460;53.106;7.004;2024-02-28T07:44:16;3.00;99.90
52565;DHT22;38460;53.106;7.004;2024-02-28T07:46:42;2.90;99.90
52565;DHT22;38460;53.106;7.004;2024-02-28T07:49:08;3.00;99.90
52565;DHT22;38460;53.106;7.004;2024-02-28T07:51:33;3.00;99.90
52565;DHT22;38460;53.106;7.004;2024-02-28T07:53:59;3.00;99.90
52565;DHT22;38460;53.106;7.004;2024-02-28T07:56:25;3.30;99.90
52565;DHT22;38460;53.106;7.004;2024-02-28T07:58:51;3.00;99.90
52565;DHT22;38460;53.106;7.004;2024-02-28T08:01:17;3.00;99.90
52565;DHT22;38460;53.106;7.004;2024-02-28T08:03:43;3.00;99.90
52565;DHT22;38460;53.106;7.004;2024-02-28T08:06:09;3.00;99.90
52565;DHT22;38460;53.106;7.004;2024-02-28T08:08:35;3.00;99.90
52565;DHT22;38460;53.106;7.004;2024-02-28T08:11:02;3.10;99.90
52565;DHT22;38460;53.106;7.004;2024-02-28T08:13:29;3.10;99.90
52565;DHT22;38460;53.106;7.004;2024-02-28T08:15:55;3.10;99.90
52565;DHT22;38460;53.106;7.004;2024-02-28T08:18:21;3.10;99.90
52565;DHT22;38460;53.106;7.004;2024-02-28T08:20:46;3.20;99.90
52565;DHT22;38460;53.106;7.004;2024-02-28T08:23:12;3.20;99.90
52565;DHT22;38460;53.106;7.004;2024-02-28T08:25:38;3.20;99.90
52565;DHT22;38460;53.106;7.004;2024-02-28T08:28:04;3.20;99.90
52565;DHT22;38460;53.106;7.004;2024-02-28T08:30:30;3.20;99.90
52565;DHT22;38460;53.106;7.004;2024-02-28T08:32:56;3.30;99.90
52565;DHT22;38460;53.106;7.004;2024-02-28T08:35:23;3.30;99.90
52565;DHT22;38460;53.106;7.004;2024-02-28T08:37:49;3.30;99.90
52565;DHT22;38460;53.106;7.004;2024-02-28T08:40:15;3.30;99.90
52565;DHT22;38460;53.106;7.004;2024-02-28T08:42:41;3.30;99.90
52565;DHT22;38460;53.106;7.004;2024-02-28T08:45:07;3.30;99.90
52565;DHT22;38460;53.106;7.004;2024-02-28T08:47:33;3.40;99.90
52565;DHT22;38460;53.106;7.004;2024-02-28T08:49:59;3.40;99.90
52565;DHT22;38460;53.106;7.004;2024-02-28T08:52:25;3.40;99.90
52565;DHT22;38460;53.106;7.004;2024-02-28T08:54:50;3.50;99.90
52565;DHT22;38460;53.106;7.004;2024-02-28T08:57:16;3.50;99.90
52565;DHT22;38460;53.106;7.004;2024-02-28T08:59:42;3.50;99.90
52565;DHT22;38460;53.106;7.004;2024-02-28T09:02:08;3.70;99.90
52565;DHT22;38460;53.106;7.004;2024-02-28T09:04:36;3.60;99.90
52565;DHT22;38460;53.106;7.004;2024-02-28T09:07:02;3.50;99.90
52565;DHT22;38460;53.106;7.004;2024-02-28T09:09:28;3.60;99.90
52565;DHT22;38460;53.106;7.004;2024-02-28T09:11:55;3.60;99.90
52565;DHT22;38460;53.106;7.004;2024-02-28T09:14:21;3.60;99.90
52565;DHT22;38460;53.106;7.004;2024-02-28T09:16:47;3.80;99.90
52565;DHT22;38460;53.106;7.004;2024-02-28T09:19:13;3.70;99.90
52565;DHT22;38460;53.106;7.004;2024-02-28T09:21:40;3.70;99.90
52565;DHT22;38460;53.106;7.004;2024-02-28T09:24:06;3.70;99.90
52565;DHT22;38460;53.106;7.004;2024-02-28T09:26:32;3.80;99.90
52565;DHT22;38460;53.106;7.004;2024-02-28T09:28:58;3.80;99.90
52565;DHT22;38460;53.106;7.004;2024-02-28T09:31:23;3.90;99.90
52565;DHT22;38460;53.106;7.004;2024-02-28T09:33:49;3.90;99.90
52565;DHT22;38460;53.106;7.004;2024-02-28T09:36:15;4.00;99.90
52565;DHT22;38460;53.106;7.004;2024-02-28T09:38:41;4.00;99.90
52565;DHT22;38460;53.106;7.004;2024-02-28T09:41:07;4.00;99.90
52565;DHT22;38460;53.106;7.004;2024-02-28T09:43:40;4.10;99.90
52565;DHT22;38460;53.106;7.004;2024-02-28T09:46:08;4.10;99.90
52565;DHT22;38460;53.106;7.004;2024-02-28T09:48:39;4.10;99.90
52565;DHT22;38460;53.106;7.004;2024-02-28T09:51:06;4.10;99.90
52565;DHT22;38460;53.106;7.004;2024-02-28T09:53:32;4.20;99.90
52565;DHT22;38460;53.106;7.004;2024-02-28T09:55:58;4.10;99.90
52565;DHT22;38460;53.106;7.004;2024-02-28T09:58:25;4.10;99.90
52565;DHT22;38460;53.106;7.004;2024-02-28T10:00:52;4.20;99.90
52565;DHT22;38460;53.106;7.004;2024-02-28T10:03:22;4.20;99.90
52565;DHT22;38460;53.106;7.004;2024-02-28T10:05:49;4.30;99.90
52565;DHT22;38460;53.106;7.004;2024-02-28T10:08:15;4.40;99.90
52565;DHT22;38460;53.106;7.004;2024-02-28T10:10:48;4.40;99.90
52565;DHT22;38460;53.106;7.004;2024-02-28T10:13:16;4.50;99.90
52565;DHT22;38460;53.106;7.004;2024-02-28T10:15:41;4.50;99.90
52565;DHT22;38460;53.106;7.004;2024-02-28T10:18:07;4.60;99.90
52565;DHT22;38460;53.106;7.004;2024-02-28T10:20:34;4.70;99.90
52565;DHT22;38460;53.106;7.004;2024-02-28T10:23:03;4.70;99.90
52565;DHT22;38460;53.106;7.004;2024-02-28T10:25:29;4.80;99.90
52565;DHT22;38460;53.106;7.004;2024-02-28T10:28:02;4.80;99.90
52565;DHT22;38460;53.106;7.004;2024-02-28T10:30:28;4.90;99.90
52565;DHT22;38460;53.106;7.004;2024-02-28T10:32:54;5.00;99.90
52565;DHT22;38460;53.106;7.004;2024-02-28T10:35:21;5.00;99.90
52565;DHT22;38460;53.106;7.004;2024-02-28T10:37:51;5.10;99.90
52565;DHT22;38460;53.106;7.004;2024-02-28T10:40:19;5.20;99.90
52565;DHT22;38460;53.106;7.004;2024-02-28T10:42:48;5.40;99.90
52565;DHT22;38460;53.106;7.004;2024-02-28T10:45:14;5.50;99.90
52565;DHT22;38460;53.106;7.004;2024-02-28T10:47:43;5.60;99.90
52565;DHT22;38460;53.106;7.004;2024-02-28T10:50:09;5.60;99.90
52565;DHT22;38460;53.106;7.004;2024-02-28T10:52:41;5.60;99.90
52565;DHT22;38460;53.106;7.004;2024-02-28T10:55:09;5.70;99.90
52565;DHT22;38460;53.106;7.004;2024-02-28T10:57:36;5.80;99.90
52565;DHT22;38460;53.106;7.004;2024-02-28T11:00:04;5.80;99.90
52565;DHT22;38460;53.106;7.004;2024-02-28T11:02:32;5.90;99.90
52565;DHT22;38460;53.106;7.004;2024-02-28T11:04:57;5.90;99.90
52565;DHT22;38460;53.106;7.004;2024-02-28T11:07:26;6.00;99.90
52565;DHT22;38460;53.106;7.004;2024-02-28T11:09:55;6.10;99.90
52565;DHT22;38460;53.106;7.004;2024-02-28T11:12:25;6.10;99.90
52565;DHT22;38460;53.106;7.004;2024-02-28T11:14:59;6.10;99.90
52565;DHT22;38460;53.106;7.004;2024-02-28T11:17:30;6.20;99.90
52565;DHT22;38460;53.106;7.004;2024-02-28T11:19:57;6.10;99.90
52565;DHT22;38460;53.106;7.004;2024-02-28T11:22:23;6.20;99.90
52565;DHT22;38460;53.106;7.004;2024-02-28T11:24:49;6.20;99.90
52565;DHT22;38460;53.106;7.004;2024-02-28T11:27:16;6.30;99.90
52565;DHT22;38460;53.106;7.004;2024-02-28T11:29:42;6.30;99.90
52565;DHT22;38460;53.106;7.004;2024-02-28T11:32:08;6.30;99.90
52565;DHT22;38460;53.106;7.004;2024-02-28T11:34:36;6.30;99.90
52565;DHT22;38460;53.106;7.004;2024-02-28T11:37:03;6.30;99.90
52565;DHT22;38460;53.106;7.004;2024-02-28T11:39:29;6.30;99.90
52565;DHT22;38460;53.106;7.004;2024-02-28T11:42:09;6.30;99.90
52565;DHT22;38460;53.106;7.004;2024-02-28T11:44:35;6.40;99.90
52565;DHT22;38460;53.106;7.004;2024-02-28T11:47:01;6.40;99.90
52565;DHT22;38460;53.106;7.004;2024-02-28T11:49:28;6.50;99.90
52565;DHT22;38460;53.106;7.004;2024-02-28T11:51:53;6.50;99.90
52565;DHT22;38460;53.106;7.004;2024-02-28T11:54:19;6.60;99.90
52565;DHT22;38460;53.106;7.004;2024-02-28T11:56:45;6.60;99.90
52565;DHT22;38460;53.106;7.004;2024-02-28T11:59:11;6.70;99.90
52565;DHT22;38460;53.106;7.004;2024-02-28T12:01:41;6.70;99.90
52565;DHT22;38460;53.106;7.004;2024-02-28T12:04:09;6.80;99.90
52565;DHT22;38460;53.106;7.004;2024-02-28T12:06:37;6.80;99.90
52565;DHT22;38460;53.106;7.004;2024-02-28T12:09:12;6.80;99.90
52565;DHT22;38460;53.106;7.004;2024-02-28T12:11:41;6.80;99.90
52565;DHT22;38460;53.106;7.004;2024-02-28T12:14:07;6.90;99.90
52565;DHT22;38460;53.106;7.004;2024-02-28T12:16:37;6.90;99.90
52565;DHT22;38460;53.106;7.004;2024-02-28T12:19:10;7.00;99.90
52565;DHT22;38460;53.106;7.004;2024-02-28T12:21:39;7.00;99.90
52565;DHT22;38460;53.106;7.004;2024-02-28T12:24:09;7.10;99.90
52565;DHT22;38460;53.106;7.004;2024-02-28T12:26:36;7.10;99.90
52565;DHT22;38460;53.106;7.004;2024-02-28T12:29:02;7.10;99.90
52565;DHT22;38460;53.106;7.004;2024-02-28T12:31:28;7.20;99.90
52565;DHT22;38460;53.106;7.004;2024-02-28T12:33:54;7.20;99.90
52565;DHT22;38460;53.106;7.004;2024-02-28T12:36:20;7.30;99.90
52565;DHT22;38460;53.106;7.004;2024-02-28T12:38:47;7.30;99.90
52565;DHT22;38460;53.106;7.004;2024-02-28T12:41:13;7.40;99.90
52565;DHT22;38460;53.106;7.004;2024-02-28T12:43:39;7.40;99.90
52565;DHT22;38460;53.106;7.004;2024-02-28T12:46:05;7.40;99.90
52565;DHT22;38460;53.106;7.004;2024-02-28T12:48:38;7.40;99.90
52565;DHT22;38460;53.106;7.004;2024-02-28T12:51:04;7.50;99.90
52565;DHT22;38460;53.106;7.004;2024-02-28T12:53:34;7.50;99.90
52565;DHT22;38460;53.106;7.004;2024-02-28T12:56:00;7.50;99.90
52565;DHT22;38460;53.106;7.004;2024-02-28T12:58:26;7.50;99.90
52565;DHT22;38460;53.106;7.004;2024-02-28T13:00:52;7.50;99.90
52565;DHT22;38460;53.106;7.004;2024-02-28T13:03:18;7.50;99.90
52565;DHT22;38460;53.106;7.004;2024-02-28T13:05:44;7.50;99.90
52565;DHT22;38460;53.106;7.004;2024-02-28T13:08:10;7.50;99.90
52565;DHT22;38460;53.106;7.004;2024-02-28T13:10:36;7.50;99.90
52565;DHT22;38460;53.106;7.004;2024-02-28T13:13:06;7.60;99.90
52565;DHT22;38460;53.106;7.004;2024-02-28T13:15:33;7.60;99.90
52565;DHT22;38460;53.106;7.004;2024-02-28T13:17:59;7.60;99.90
52565;DHT22;38460;53.106;7.004;2024-02-28T13:20:26;7.60;99.90
52565;DHT22;38460;53.106;7.004;2024-02-28T13:22:53;7.70;99.90
52565;DHT22;38460;53.106;7.004;2024-02-28T13:25:19;7.80;99.90
52565;DHT22;38460;53.106;7.004;2024-02-28T13:27:48;7.80;99.90
52565;DHT22;38460;53.106;7.004;2024-02-28T13:30:14;7.80;99.90
52565;DHT22;38460;53.106;7.004;2024-02-28T13:32:40;7.80;99.90
52565;DHT22;38460;53.106;7.004;2024-02-28T13:35:07;7.80;99.90
52565;DHT22;38460;53.106;7.004;2024-02-28T13:37:33;7.80;99.90
52565;DHT22;38460;53.106;7.004;2024-02-28T13:39:59;7.80;99.90
52565;DHT22;38460;53.106;7.004;2024-02-28T13:42:24;7.80;99.90
52565;DHT22;38460;53.106;7.004;2024-02-28T13:44:51;7.70;99.90
52565;DHT22;38460;53.106;7.004;2024-02-28T13:47:17;7.70;99.90
52565;DHT22;38460;53.106;7.004;2024-02-28T13:49:42;7.70;99.90
52565;DHT22;38460;53.106;7.004;2024-02-28T13:52:08;7.70;99.90
52565;DHT22;38460;53.106;7.004;2024-02-28T13:54:34;7.70;99.90
52565;DHT22;38460;53.106;7.004;2024-02-28T13:57:03;7.70;99.90
52565;DHT22;38460;53.106;7.004;2024-02-28T13:59:30;7.70;99.90
52565;DHT22;38460;53.106;7.004;2024-02-28T14:01:57;7.70;99.90
52565;DHT22;38460;53.106;7.004;2024-02-28T14:04:24;7.70;99.90
52565;DHT22;38460;53.106;7.004;2024-02-28T14:06:50;7.70;99.90
52565;DHT22;38460;53.106;7.004;2024-02-28T14:09:15;7.60;99.90
52565;DHT22;38460;53.106;7.004;2024-02-28T14:11:41;7.60;99.90
52565;DHT22;38460;53.106;7.004;2024-02-28T14:14:07;7.60;99.90
52565;DHT22;38460;53.106;7.004;2024-02-28T14:16:33;7.60;99.90
52565;DHT22;38460;53.106;7.004;2024-02-28T14:18:59;7.60;99.90
52565;DHT22;38460;53.106;7.004;2024-02-28T14:21:25;7.60;99.90
52565;DHT22;38460;53.106;7.004;2024-02-28T14:23:51;7.60;99.90
52565;DHT22;38460;53.106;7.004;2024-02-28T14:26:17;7.60;99.90
52565;DHT22;38460;53.106;7.004;2024-02-28T14:28:43;7.50;99.90
52565;DHT22;38460;53.106;7.004;2024-02-28T14:31:09;7.50;99.90
52565;DHT22;38460;53.106;7.004;2024-02-28T14:33:35;7.50;99.90
52565;DHT22;38460;53.106;7.004;2024-02-28T14:36:02;7.50;99.90
52565;DHT22;38460;53.106;7.004;2024-02-28T14:38:31;7.50;99.90
52565;DHT22;38460;53.106;7.004;2024-02-28T14:40:57;7.60;99.90
52565;DHT22;38460;53.106;7.004;2024-02-28T14:43:22;7.50;99.90
52565;DHT22;38460;53.106;7.004;2024-02-28T14:45:48;7.60;99.90
52565;DHT22;38460;53.106;7.004;2024-02-28T14:48:14;7.60;99.90
52565;DHT22;38460;53.106;7.004;2024-02-28T14:50:40;7.60;99.90
52565;DHT22;38460;53.106;7.004;2024-02-28T14:53:08;7.60;99.90
52565;DHT22;38460;53.106;7.004;2024-02-28T14:55:34;7.60;99.90
52565;DHT22;38460;53.106;7.004;2024-02-28T14:57:59;7.60;99.90
52565;DHT22;38460;53.106;7.004;2024-02-28T15:00:27;7.60;99.90
52565;DHT22;38460;53.106;7.004;2024-02-28T15:02:53;7.70;99.90
52565;DHT22;38460;53.106;7.004;2024-02-28T15:05:19;7.70;99.90
52565;DHT22;38460;53.106;7.004;2024-02-28T15:07:45;7.80;99.90
52565;DHT22;38460;53.106;7.004;2024-02-28T15:10:11;7.70;99.90
52565;DHT22;38460;53.106;7.004;2024-02-28T15:12:39;7.80;99.90
52565;DHT22;38460;53.106;7.004;2024-02-28T15:15:06;7.70;99.90
52565;DHT22;38460;53.106;7.004;2024-02-28T15:17:32;7.70;99.90
52565;DHT22;38460;53.106;7.004;2024-02-28T15:19:58;7.70;99.90
52565;DHT22;38460;53.106;7.004;2024-02-28T15:22:25;7.70;99.90
52565;DHT22;38460;53.106;7.004;2024-02-28T15:24:50;7.70;99.90
52565;DHT22;38460;53.106;7.004;2024-02-28T15:27:16;7.70;99.90
52565;DHT22;38460;53.106;7.004;2024-02-28T15:29:42;7.70;99.90
52565;DHT22;38460;53.106;7.004;2024-02-28T15:32:08;7.60;99.90
52565;DHT22;38460;53.106;7.004;2024-02-28T15:34:34;7.70;99.90
52565;DHT22;38460;53.106;7.004;2024-02-28T15:37:00;7.70;99.90
52565;DHT22;38460;53.106;7.004;2024-02-28T15:39:26;7.60;99.90